sensor_id;sensor_type;location;lat;lon;timestamp;P1;durP1;ratioP1;P2;durP2;ratioP2
28848;SDS011;15981;43.292;-2.888;2022-11-20T00:00:11;1.27;;;1.00;;
28848;SDS011;15981;43.292;-2.888;2022-11-20T00:02:37;0.82;;;0.80;;
28848;SDS011;15981;43.292;-2.888;2022-11-20T00:05:03;1.48;;;1.35;;
28848;SDS011;15981;43.292;-2.888;2022-11-20T00:07:29;1.45;;;0.98;;
28848;SDS011;15981;43.292;-2.888;2022-11-20T00:09:55;1.75;;;1.10;;
28848;SDS011;15981;43.292;-2.888;2022-11-20T00:12:20;1.27;;;1.10;;
28848;SDS011;15981;43.292;-2.888;2022-11-20T00:14:46;1.83;;;1.20;;
28848;SDS011;15981;43.292;-2.888;2022-11-20T00:17:12;1.88;;;1.20;;
28848;SDS011;15981;43.292;-2.888;2022-11-20T00:19:37;0.88;;;0.82;;
28848;SDS011;15981;43.292;-2.888;2022-11-20T00:22:03;1.08;;;0.98;;
28848;SDS011;15981;43.292;-2.888;2022-11-20T00:24:29;2.00;;;0.93;;
28848;SDS011;15981;43.292;-2.888;2022-11-20T00:26:55;1.50;;;1.20;;
28848;SDS011;15981;43.292;-2.888;2022-11-20T00:29:20;1.42;;;1.05;;
28848;SDS011;15981;43.292;-2.888;2022-11-20T00:31:46;1.13;;;1.02;;
28848;SDS011;15981;43.292;-2.888;2022-11-20T00:34:12;1.17;;;1.05;;
28848;SDS011;15981;43.292;-2.888;2022-11-20T00:36:38;1.70;;;1.10;;
28848;SDS011;15981;43.292;-2.888;2022-11-20T00:39:03;1.48;;;1.10;;
28848;SDS011;15981;43.292;-2.888;2022-11-20T00:41:29;1.50;;;1.15;;
28848;SDS011;15981;43.292;-2.888;2022-11-20T00:43:55;1.25;;;1.00;;
28848;SDS011;15981;43.292;-2.888;2022-11-20T00:46:22;1.10;;;1.00;;
28848;SDS011;15981;43.292;-2.888;2022-11-20T00:48:48;1.00;;;0.90;;
28848;SDS011;15981;43.292;-2.888;2022-11-20T00:51:15;1.48;;;1.00;;
28848;SDS011;15981;43.292;-2.888;2022-11-20T00:53:42;1.00;;;0.90;;
28848;SDS011;15981;43.292;-2.888;2022-11-20T00:56:11;1.40;;;1.10;;
28848;SDS011;15981;43.292;-2.888;2022-11-20T00:58:38;1.30;;;1.20;;
28848;SDS011;15981;43.292;-2.888;2022-11-20T01:03:33;1.15;;;1.00;;
28848;SDS011;15981;43.292;-2.888;2022-11-20T01:06:00;1.42;;;1.17;;
28848;SDS011;15981;43.292;-2.888;2022-11-20T01:08:28;1.13;;;1.02;;
28848;SDS011;15981;43.292;-2.888;2022-11-20T01:10:58;1.60;;;0.95;;
28848;SDS011;15981;43.292;-2.888;2022-11-20T01:13:24;1.10;;;0.90;;
28848;SDS011;15981;43.292;-2.888;2022-11-20T01:18:34;1.92;;;1.08;;
28848;SDS011;15981;43.292;-2.888;2022-11-20T01:21:04;1.90;;;1.00;;
28848;SDS011;15981;43.292;-2.888;2022-11-20T01:23:34;2.05;;;1.23;;
28848;SDS011;15981;43.292;-2.888;2022-11-20T01:26:01;1.67;;;1.30;;
28848;SDS011;15981;43.292;-2.888;2022-11-20T01:28:28;1.40;;;1.23;;
28848;SDS011;15981;43.292;-2.888;2022-11-20T01:30:53;1.08;;;1.05;;
28848;SDS011;15981;43.292;-2.888;2022-11-20T01:33:19;1.40;;;1.27;;
28848;SDS011;15981;43.292;-2.888;2022-11-20T01:35:45;1.20;;;0.90;;
28848;SDS011;15981;43.292;-2.888;2022-11-20T01:38:11;1.17;;;1.00;;
28848;SDS011;15981;43.292;-2.888;2022-11-20T01:40:36;1.65;;;1.15;;
28848;SDS011;15981;43.292;-2.888;2022-11-20T01:43:13;1.17;;;0.90;;
28848;SDS011;15981;43.292;-2.888;2022-11-20T01:48:17;1.02;;;0.90;;
28848;SDS011;15981;43.292;-2.888;2022-11-20T01:50:43;0.90;;;0.90;;
28848;SDS011;15981;43.292;-2.888;2022-11-20T01:53:10;1.85;;;1.13;;
28848;SDS011;15981;43.292;-2.888;2022-11-20T01:55:39;2.75;;;1.20;;
28848;SDS011;15981;43.292;-2.888;2022-11-20T01:58:07;1.27;;;1.00;;
28848;SDS011;15981;43.292;-2.888;2022-11-20T02:00:33;1.50;;;0.75;;
28848;SDS011;15981;43.292;-2.888;2022-11-20T02:03:00;1.40;;;1.10;;
28848;SDS011;15981;43.292;-2.888;2022-11-20T02:08:11;1.10;;;1.00;;
28848;SDS011;15981;43.292;-2.888;2022-11-20T02:10:37;1.58;;;0.98;;
28848;SDS011;15981;43.292;-2.888;2022-11-20T02:13:03;1.38;;;0.90;;
28848;SDS011;15981;43.292;-2.888;2022-11-20T02:15:48;1.48;;;1.10;;
28848;SDS011;15981;43.292;-2.888;2022-11-20T02:18:14;1.90;;;1.00;;
28848;SDS011;15981;43.292;-2.888;2022-11-20T02:20:45;1.45;;;0.90;;
28848;SDS011;15981;43.292;-2.888;2022-11-20T02:23:16;0.98;;;0.88;;
28848;SDS011;15981;43.292;-2.888;2022-11-20T02:25:44;0.90;;;0.70;;
28848;SDS011;15981;43.292;-2.888;2022-11-20T02:28:11;1.90;;;1.00;;
28848;SDS011;15981;43.292;-2.888;2022-11-20T02:30:37;1.75;;;1.13;;
28848;SDS011;15981;43.292;-2.888;2022-11-20T02:33:02;1.30;;;1.08;;
28848;SDS011;15981;43.292;-2.888;2022-11-20T02:37:54;1.02;;;1.00;;
28848;SDS011;15981;43.292;-2.888;2022-11-20T02:40:21;1.02;;;0.90;;
28848;SDS011;15981;43.292;-2.888;2022-11-20T02:42:47;0.77;;;0.77;;
28848;SDS011;15981;43.292;-2.888;2022-11-20T02:45:13;1.60;;;0.90;;
28848;SDS011;15981;43.292;-2.888;2022-11-20T02:47:38;1.45;;;1.08;;
28848;SDS011;15981;43.292;-2.888;2022-11-20T02:50:05;1.08;;;0.90;;
28848;SDS011;15981;43.292;-2.888;2022-11-20T02:52:30;1.80;;;0.90;;
28848;SDS011;15981;43.292;-2.888;2022-11-20T02:54:56;0.75;;;0.65;;
28848;SDS011;15981;43.292;-2.888;2022-11-20T02:57:22;1.48;;;1.05;;
28848;SDS011;15981;43.292;-2.888;2022-11-20T02:59:48;0.85;;;0.80;;
28848;SDS011;15981;43.292;-2.888;2022-11-20T03:02:13;1.20;;;0.80;;
28848;SDS011;15981;43.292;-2.888;2022-11-20T03:04:39;0.93;;;0.80;;
28848;SDS011;15981;43.292;-2.888;2022-11-20T03:07:05;0.93;;;0.90;;
28848;SDS011;15981;43.292;-2.888;2022-11-20T03:09:31;1.83;;;1.25;;
28848;SDS011;15981;43.292;-2.888;2022-11-20T03:11:56;1.10;;;1.00;;
28848;SDS011;15981;43.292;-2.888;2022-11-20T03:14:22;1.00;;;0.90;;
28848;SDS011;15981;43.292;-2.888;2022-11-20T03:16:48;1.48;;;1.10;;
28848;SDS011;15981;43.292;-2.888;2022-11-20T03:19:14;1.10;;;0.90;;
28848;SDS011;15981;43.292;-2.888;2022-11-20T03:21:39;1.20;;;1.10;;
28848;SDS011;15981;43.292;-2.888;2022-11-20T03:24:05;1.20;;;1.10;;
28848;SDS011;15981;43.292;-2.888;2022-11-20T03:26:31;1.42;;;0.82;;
28848;SDS011;15981;43.292;-2.888;2022-11-20T03:28:58;1.40;;;1.00;;
28848;SDS011;15981;43.292;-2.888;2022-11-20T03:31:25;1.25;;;1.00;;
28848;SDS011;15981;43.292;-2.888;2022-11-20T03:33:51;1.02;;;0.90;;
28848;SDS011;15981;43.292;-2.888;2022-11-20T03:36:18;1.00;;;0.90;;
28848;SDS011;15981;43.292;-2.888;2022-11-20T03:38:44;1.05;;;0.90;;
28848;SDS011;15981;43.292;-2.888;2022-11-20T03:41:11;1.10;;;0.90;;
28848;SDS011;15981;43.292;-2.888;2022-11-20T03:43:37;0.80;;;0.80;;
28848;SDS011;15981;43.292;-2.888;2022-11-20T03:46:03;0.88;;;0.80;;
28848;SDS011;15981;43.292;-2.888;2022-11-20T03:48:29;1.25;;;0.88;;
28848;SDS011;15981;43.292;-2.888;2022-11-20T03:51:08;1.65;;;0.90;;
28848;SDS011;15981;43.292;-2.888;2022-11-20T03:53:34;1.05;;;0.80;;
28848;SDS011;15981;43.292;-2.888;2022-11-20T03:55:59;1.52;;;0.95;;
28848;SDS011;15981;43.292;-2.888;2022-11-20T03:58:25;1.38;;;0.90;;
28848;SDS011;15981;43.292;-2.888;2022-11-20T04:00:51;0.70;;;0.70;;
28848;SDS011;15981;43.292;-2.888;2022-11-20T04:03:17;0.73;;;0.73;;
28848;SDS011;15981;43.292;-2.888;2022-11-20T04:05:43;0.80;;;0.80;;
28848;SDS011;15981;43.292;-2.888;2022-11-20T04:08:09;1.73;;;0.93;;
28848;SDS011;15981;43.292;-2.888;2022-11-20T04:10:35;1.70;;;1.35;;
28848;SDS011;15981;43.292;-2.888;2022-11-20T04:13:00;1.60;;;1.08;;
28848;SDS011;15981;43.292;-2.888;2022-11-20T04:15:26;1.20;;;1.10;;
28848;SDS011;15981;43.292;-2.888;2022-11-20T04:17:52;1.23;;;0.95;;
28848;SDS011;15981;43.292;-2.888;2022-11-20T04:20:18;1.10;;;0.90;;
28848;SDS011;15981;43.292;-2.888;2022-11-20T04:22:45;0.85;;;0.70;;
28848;SDS011;15981;43.292;-2.888;2022-11-20T04:25:10;0.68;;;0.68;;
28848;SDS011;15981;43.292;-2.888;2022-11-20T04:27:36;1.55;;;1.33;;
28848;SDS011;15981;43.292;-2.888;2022-11-20T04:30:02;0.77;;;0.70;;
28848;SDS011;15981;43.292;-2.888;2022-11-20T04:32:28;1.15;;;0.90;;
28848;SDS011;15981;43.292;-2.888;2022-11-20T04:34:54;0.88;;;0.77;;
28848;SDS011;15981;43.292;-2.888;2022-11-20T04:37:19;1.67;;;0.90;;
28848;SDS011;15981;43.292;-2.888;2022-11-20T04:39:45;2.40;;;1.52;;
28848;SDS011;15981;43.292;-2.888;2022-11-20T04:42:11;1.30;;;0.90;;
28848;SDS011;15981;43.292;-2.888;2022-11-20T04:44:55;1.02;;;0.80;;
28848;SDS011;15981;43.292;-2.888;2022-11-20T04:47:21;1.48;;;1.00;;
28848;SDS011;15981;43.292;-2.888;2022-11-20T04:49:46;1.33;;;0.98;;
28848;SDS011;15981;43.292;-2.888;2022-11-20T04:52:12;1.05;;;0.90;;
28848;SDS011;15981;43.292;-2.888;2022-11-20T04:54:38;0.80;;;0.80;;
28848;SDS011;15981;43.292;-2.888;2022-11-20T04:57:04;1.10;;;1.00;;
28848;SDS011;15981;43.292;-2.888;2022-11-20T04:59:30;0.77;;;0.77;;
28848;SDS011;15981;43.292;-2.888;2022-11-20T05:01:55;1.55;;;1.00;;
28848;SDS011;15981;43.292;-2.888;2022-11-20T05:04:21;3.88;;;2.53;;
28848;SDS011;15981;43.292;-2.888;2022-11-20T05:06:47;1.50;;;1.25;;
28848;SDS011;15981;43.292;-2.888;2022-11-20T05:09:13;0.60;;;0.60;;
28848;SDS011;15981;43.292;-2.888;2022-11-20T05:11:39;0.80;;;0.75;;
28848;SDS011;15981;43.292;-2.888;2022-11-20T05:14:05;0.75;;;0.73;;
28848;SDS011;15981;43.292;-2.888;2022-11-20T05:16:30;1.23;;;1.08;;
28848;SDS011;15981;43.292;-2.888;2022-11-20T05:18:56;1.50;;;0.65;;
28848;SDS011;15981;43.292;-2.888;2022-11-20T05:21:22;0.90;;;0.80;;
28848;SDS011;15981;43.292;-2.888;2022-11-20T05:23:48;1.65;;;0.98;;
28848;SDS011;15981;43.292;-2.888;2022-11-20T05:26:15;0.80;;;0.70;;
28848;SDS011;15981;43.292;-2.888;2022-11-20T05:28:41;0.75;;;0.65;;
28848;SDS011;15981;43.292;-2.888;2022-11-20T05:31:09;1.05;;;0.82;;
28848;SDS011;15981;43.292;-2.888;2022-11-20T05:33:35;0.52;;;0.52;;
28848;SDS011;15981;43.292;-2.888;2022-11-20T05:36:03;1.80;;;0.65;;
28848;SDS011;15981;43.292;-2.888;2022-11-20T05:38:29;1.58;;;0.65;;
28848;SDS011;15981;43.292;-2.888;2022-11-20T05:41:02;0.60;;;0.60;;
28848;SDS011;15981;43.292;-2.888;2022-11-20T05:43:28;1.27;;;0.93;;
28848;SDS011;15981;43.292;-2.888;2022-11-20T05:45:56;0.60;;;0.60;;
28848;SDS011;15981;43.292;-2.888;2022-11-20T05:48:22;0.60;;;0.60;;
28848;SDS011;15981;43.292;-2.888;2022-11-20T05:50:48;0.60;;;0.60;;
28848;SDS011;15981;43.292;-2.888;2022-11-20T05:53:13;0.82;;;0.70;;
28848;SDS011;15981;43.292;-2.888;2022-11-20T05:55:39;0.70;;;0.70;;
28848;SDS011;15981;43.292;-2.888;2022-11-20T05:58:05;0.95;;;0.70;;
28848;SDS011;15981;43.292;-2.888;2022-11-20T06:00:31;0.50;;;0.50;;
28848;SDS011;15981;43.292;-2.888;2022-11-20T06:02:56;0.47;;;0.47;;
28848;SDS011;15981;43.292;-2.888;2022-11-20T06:05:22;0.70;;;0.60;;
28848;SDS011;15981;43.292;-2.888;2022-11-20T06:07:48;1.17;;;0.90;;
28848;SDS011;15981;43.292;-2.888;2022-11-20T06:10:13;1.48;;;0.73;;
28848;SDS011;15981;43.292;-2.888;2022-11-20T06:12:39;0.75;;;0.73;;
28848;SDS011;15981;43.292;-2.888;2022-11-20T06:15:05;0.73;;;0.70;;
28848;SDS011;15981;43.292;-2.888;2022-11-20T06:17:31;0.60;;;0.60;;
28848;SDS011;15981;43.292;-2.888;2022-11-20T06:19:57;0.57;;;0.57;;
28848;SDS011;15981;43.292;-2.888;2022-11-20T06:22:23;0.68;;;0.52;;
28848;SDS011;15981;43.292;-2.888;2022-11-20T06:24:48;0.85;;;0.68;;
28848;SDS011;15981;43.292;-2.888;2022-11-20T06:27:14;0.90;;;0.60;;
28848;SDS011;15981;43.292;-2.888;2022-11-20T06:29:40;0.85;;;0.70;;
28848;SDS011;15981;43.292;-2.888;2022-11-20T06:32:05;0.65;;;0.52;;
28848;SDS011;15981;43.292;-2.888;2022-11-20T06:34:31;0.90;;;0.70;;
28848;SDS011;15981;43.292;-2.888;2022-11-20T06:36:57;0.50;;;0.50;;
28848;SDS011;15981;43.292;-2.888;2022-11-20T06:39:23;0.73;;;0.63;;
28848;SDS011;15981;43.292;-2.888;2022-11-20T06:41:48;0.68;;;0.60;;
28848;SDS011;15981;43.292;-2.888;2022-11-20T06:44:14;1.00;;;0.70;;
28848;SDS011;15981;43.292;-2.888;2022-11-20T06:46:40;1.13;;;0.63;;
28848;SDS011;15981;43.292;-2.888;2022-11-20T06:49:05;0.70;;;0.70;;
28848;SDS011;15981;43.292;-2.888;2022-11-20T06:51:31;1.10;;;0.80;;
28848;SDS011;15981;43.292;-2.888;2022-11-20T06:53:57;1.15;;;0.90;;
28848;SDS011;15981;43.292;-2.888;2022-11-20T06:56:23;0.88;;;0.75;;
28848;SDS011;15981;43.292;-2.888;2022-11-20T06:58:48;1.25;;;0.80;;
28848;SDS011;15981;43.292;-2.888;2022-11-20T07:01:14;0.95;;;0.70;;
28848;SDS011;15981;43.292;-2.888;2022-11-20T07:03:40;0.70;;;0.70;;
28848;SDS011;15981;43.292;-2.888;2022-11-20T07:06:06;1.55;;;0.68;;
28848;SDS011;15981;43.292;-2.888;2022-11-20T07:08:32;1.15;;;0.80;;
28848;SDS011;15981;43.292;-2.888;2022-11-20T07:10:58;0.70;;;0.70;;
28848;SDS011;15981;43.292;-2.888;2022-11-20T07:13:25;0.80;;;0.80;;
28848;SDS011;15981;43.292;-2.888;2022-11-20T07:15:51;4.65;;;1.90;;
28848;SDS011;15981;43.292;-2.888;2022-11-20T07:18:16;6.13;;;2.40;;
28848;SDS011;15981;43.292;-2.888;2022-11-20T07:20:42;7.78;;;1.90;;
28848;SDS011;15981;43.292;-2.888;2022-11-20T07:23:08;4.70;;;1.73;;
28848;SDS011;15981;43.292;-2.888;2022-11-20T07:25:33;6.15;;;1.80;;
28848;SDS011;15981;43.292;-2.888;2022-11-20T07:27:59;8.50;;;2.10;;
28848;SDS011;15981;43.292;-2.888;2022-11-20T07:30:29;7.35;;;2.17;;
28848;SDS011;15981;43.292;-2.888;2022-11-20T07:32:55;5.75;;;2.05;;
28848;SDS011;15981;43.292;-2.888;2022-11-20T07:35:21;8.02;;;2.08;;
28848;SDS011;15981;43.292;-2.888;2022-11-20T07:37:47;3.63;;;1.70;;
28848;SDS011;15981;43.292;-2.888;2022-11-20T07:40:14;6.13;;;1.88;;
28848;SDS011;15981;43.292;-2.888;2022-11-20T07:42:49;3.15;;;1.58;;
28848;SDS011;15981;43.292;-2.888;2022-11-20T07:45:16;4.90;;;1.63;;
28848;SDS011;15981;43.292;-2.888;2022-11-20T07:47:42;1.88;;;1.10;;
28848;SDS011;15981;43.292;-2.888;2022-11-20T07:50:07;4.57;;;1.20;;
28848;SDS011;15981;43.292;-2.888;2022-11-20T07:52:33;4.25;;;1.35;;
28848;SDS011;15981;43.292;-2.888;2022-11-20T07:54:59;2.95;;;1.30;;
28848;SDS011;15981;43.292;-2.888;2022-11-20T07:57:25;3.25;;;1.23;;
28848;SDS011;15981;43.292;-2.888;2022-11-20T07:59:50;3.75;;;1.35;;
28848;SDS011;15981;43.292;-2.888;2022-11-20T08:02:16;3.03;;;1.25;;
28848;SDS011;15981;43.292;-2.888;2022-11-20T08:04:42;2.22;;;1.00;;
28848;SDS011;15981;43.292;-2.888;2022-11-20T08:07:07;2.47;;;1.00;;
28848;SDS011;15981;43.292;-2.888;2022-11-20T08:09:33;2.58;;;1.05;;
28848;SDS011;15981;43.292;-2.888;2022-11-20T08:11:59;2.85;;;1.02;;
28848;SDS011;15981;43.292;-2.888;2022-11-20T08:14:43;2.58;;;1.05;;
28848;SDS011;15981;43.292;-2.888;2022-11-20T08:17:08;1.45;;;0.90;;
28848;SDS011;15981;43.292;-2.888;2022-11-20T08:19:35;2.17;;;0.88;;
28848;SDS011;15981;43.292;-2.888;2022-11-20T08:22:00;2.30;;;0.95;;
28848;SDS011;15981;43.292;-2.888;2022-11-20T08:24:26;1.80;;;0.98;;
28848;SDS011;15981;43.292;-2.888;2022-11-20T08:26:52;1.75;;;0.90;;
28848;SDS011;15981;43.292;-2.888;2022-11-20T08:29:18;1.48;;;1.00;;
28848;SDS011;15981;43.292;-2.888;2022-11-20T08:31:43;1.77;;;1.05;;
28848;SDS011;15981;43.292;-2.888;2022-11-20T08:34:09;3.03;;;0.85;;
28848;SDS011;15981;43.292;-2.888;2022-11-20T08:36:35;0.93;;;0.70;;
28848;SDS011;15981;43.292;-2.888;2022-11-20T08:39:01;1.55;;;0.73;;
28848;SDS011;15981;43.292;-2.888;2022-11-20T08:41:28;1.55;;;0.75;;
28848;SDS011;15981;43.292;-2.888;2022-11-20T08:43:56;0.88;;;0.60;;
28848;SDS011;15981;43.292;-2.888;2022-11-20T08:46:23;2.50;;;0.63;;
28848;SDS011;15981;43.292;-2.888;2022-11-20T08:48:49;1.73;;;0.98;;
28848;SDS011;15981;43.292;-2.888;2022-11-20T08:51:15;1.50;;;0.88;;
28848;SDS011;15981;43.292;-2.888;2022-11-20T08:53:41;1.95;;;1.02;;
28848;SDS011;15981;43.292;-2.888;2022-11-20T08:56:07;1.13;;;0.73;;
28848;SDS011;15981;43.292;-2.888;2022-11-20T08:58:33;1.05;;;0.85;;
28848;SDS011;15981;43.292;-2.888;2022-11-20T09:00:58;3.95;;;1.17;;
28848;SDS011;15981;43.292;-2.888;2022-11-20T09:03:24;1.20;;;0.90;;
28848;SDS011;15981;43.292;-2.888;2022-11-20T09:06:01;1.70;;;1.10;;
28848;SDS011;15981;43.292;-2.888;2022-11-20T09:08:28;2.72;;;1.30;;
28848;SDS011;15981;43.292;-2.888;2022-11-20T09:10:54;1.42;;;1.13;;
28848;SDS011;15981;43.292;-2.888;2022-11-20T09:13:20;2.72;;;1.23;;
28848;SDS011;15981;43.292;-2.888;2022-11-20T09:15:46;2.70;;;1.50;;
28848;SDS011;15981;43.292;-2.888;2022-11-20T09:18:12;2.65;;;1.30;;
28848;SDS011;15981;43.292;-2.888;2022-11-20T09:20:38;1.33;;;1.20;;
28848;SDS011;15981;43.292;-2.888;2022-11-20T09:23:03;2.67;;;1.40;;
28848;SDS011;15981;43.292;-2.888;2022-11-20T09:25:29;2.92;;;1.38;;
28848;SDS011;15981;43.292;-2.888;2022-11-20T09:27:56;2.92;;;1.50;;
28848;SDS011;15981;43.292;-2.888;2022-11-20T09:30:22;3.78;;;2.28;;
28848;SDS011;15981;43.292;-2.888;2022-11-20T09:32:47;5.80;;;3.13;;
28848;SDS011;15981;43.292;-2.888;2022-11-20T09:35:13;7.38;;;3.58;;
28848;SDS011;15981;43.292;-2.888;2022-11-20T09:37:40;8.45;;;4.18;;
28848;SDS011;15981;43.292;-2.888;2022-11-20T09:40:06;6.15;;;3.33;;
28848;SDS011;15981;43.292;-2.888;2022-11-20T09:45:11;22.88;;;11.90;;
28848;SDS011;15981;43.292;-2.888;2022-11-20T09:50:27;71.18;;;36.60;;
28848;SDS011;15981;43.292;-2.888;2022-11-20T09:53:07;68.28;;;37.17;;
28848;SDS011;15981;43.292;-2.888;2022-11-20T09:55:36;77.45;;;39.90;;
28848;SDS011;15981;43.292;-2.888;2022-11-20T09:58:05;105.53;;;50.72;;
28848;SDS011;15981;43.292;-2.888;2022-11-20T10:00:31;194.40;;;86.45;;
28848;SDS011;15981;43.292;-2.888;2022-11-20T10:03:11;223.10;;;92.28;;
28848;SDS011;15981;43.292;-2.888;2022-11-20T10:05:41;237.07;;;100.43;;
28848;SDS011;15981;43.292;-2.888;2022-11-20T10:08:13;246.00;;;101.22;;
28848;SDS011;15981;43.292;-2.888;2022-11-20T10:10:43;264.55;;;104.15;;
28848;SDS011;15981;43.292;-2.888;2022-11-20T10:15:38;223.68;;;94.68;;
28848;SDS011;15981;43.292;-2.888;2022-11-20T10:18:34;212.70;;;89.45;;
28848;SDS011;15981;43.292;-2.888;2022-11-20T10:30:48;138.80;;;57.55;;
28848;SDS011;15981;43.292;-2.888;2022-11-20T10:33:22;144.27;;;57.25;;
28848;SDS011;15981;43.292;-2.888;2022-11-20T10:35:50;129.20;;;55.60;;
28848;SDS011;15981;43.292;-2.888;2022-11-20T10:40:44;109.45;;;50.92;;
28848;SDS011;15981;43.292;-2.888;2022-11-20T10:45:53;125.78;;;56.50;;
28848;SDS011;15981;43.292;-2.888;2022-11-20T10:48:23;103.65;;;52.42;;
28848;SDS011;15981;43.292;-2.888;2022-11-20T10:51:03;96.70;;;49.15;;
28848;SDS011;15981;43.292;-2.888;2022-11-20T10:56:23;89.60;;;44.25;;
28848;SDS011;15981;43.292;-2.888;2022-11-20T11:01:25;86.47;;;40.53;;
28848;SDS011;15981;43.292;-2.888;2022-11-20T11:03:52;68.20;;;32.42;;
28848;SDS011;15981;43.292;-2.888;2022-11-20T11:06:25;68.78;;;34.83;;
28848;SDS011;15981;43.292;-2.888;2022-11-20T11:08:53;73.07;;;36.75;;
28848;SDS011;15981;43.292;-2.888;2022-11-20T11:11:24;63.35;;;30.95;;
28848;SDS011;15981;43.292;-2.888;2022-11-20T11:13:51;56.58;;;25.80;;
28848;SDS011;15981;43.292;-2.888;2022-11-20T11:16:21;53.95;;;25.88;;
28848;SDS011;15981;43.292;-2.888;2022-11-20T11:18:48;53.30;;;24.38;;
28848;SDS011;15981;43.292;-2.888;2022-11-20T11:21:13;52.10;;;26.27;;
28848;SDS011;15981;43.292;-2.888;2022-11-20T11:23:45;48.90;;;23.33;;
28848;SDS011;15981;43.292;-2.888;2022-11-20T11:26:21;40.25;;;21.55;;
28848;SDS011;15981;43.292;-2.888;2022-11-20T11:29:00;48.55;;;22.45;;
28848;SDS011;15981;43.292;-2.888;2022-11-20T11:31:27;47.45;;;22.50;;
28848;SDS011;15981;43.292;-2.888;2022-11-20T11:34:03;44.55;;;21.58;;
28848;SDS011;15981;43.292;-2.888;2022-11-20T11:36:29;41.53;;;20.38;;
28848;SDS011;15981;43.292;-2.888;2022-11-20T11:38:54;36.45;;;19.48;;
28848;SDS011;15981;43.292;-2.888;2022-11-20T11:41:22;38.33;;;20.20;;
28848;SDS011;15981;43.292;-2.888;2022-11-20T11:43:56;40.75;;;19.38;;
28848;SDS011;15981;43.292;-2.888;2022-11-20T11:46:54;41.33;;;18.13;;
28848;SDS011;15981;43.292;-2.888;2022-11-20T11:49:20;34.78;;;18.90;;
28848;SDS011;15981;43.292;-2.888;2022-11-20T11:54:27;36.25;;;17.98;;
28848;SDS011;15981;43.292;-2.888;2022-11-20T11:56:54;36.03;;;18.20;;
28848;SDS011;15981;43.292;-2.888;2022-11-20T12:04:50;28.13;;;15.77;;
28848;SDS011;15981;43.292;-2.888;2022-11-20T12:10:02;33.60;;;16.45;;
28848;SDS011;15981;43.292;-2.888;2022-11-20T12:12:30;32.22;;;16.08;;
28848;SDS011;15981;43.292;-2.888;2022-11-20T12:14:58;30.42;;;15.27;;
28848;SDS011;15981;43.292;-2.888;2022-11-20T12:17:23;32.58;;;15.88;;
28848;SDS011;15981;43.292;-2.888;2022-11-20T12:19:49;30.42;;;15.73;;
28848;SDS011;15981;43.292;-2.888;2022-11-20T12:25:04;28.92;;;14.38;;
28848;SDS011;15981;43.292;-2.888;2022-11-20T12:30:16;29.23;;;13.23;;
28848;SDS011;15981;43.292;-2.888;2022-11-20T12:32:52;29.95;;;13.45;;
28848;SDS011;15981;43.292;-2.888;2022-11-20T12:37:59;22.58;;;12.73;;
28848;SDS011;15981;43.292;-2.888;2022-11-20T12:46:08;20.83;;;10.75;;
28848;SDS011;15981;43.292;-2.888;2022-11-20T12:48:42;23.30;;;10.38;;
28848;SDS011;15981;43.292;-2.888;2022-11-20T12:58:52;16.92;;;8.57;;
28848;SDS011;15981;43.292;-2.888;2022-11-20T13:06:37;16.40;;;7.55;;
28848;SDS011;15981;43.292;-2.888;2022-11-20T13:09:04;16.63;;;7.20;;
28848;SDS011;15981;43.292;-2.888;2022-11-20T13:11:37;15.82;;;7.53;;
28848;SDS011;15981;43.292;-2.888;2022-11-20T13:19:35;17.30;;;6.97;;
28848;SDS011;15981;43.292;-2.888;2022-11-20T13:22:01;15.85;;;6.97;;
28848;SDS011;15981;43.292;-2.888;2022-11-20T13:24:27;12.35;;;5.90;;
28848;SDS011;15981;43.292;-2.888;2022-11-20T13:29:36;13.60;;;6.47;;
28848;SDS011;15981;43.292;-2.888;2022-11-20T13:34:50;17.42;;;6.80;;
28848;SDS011;15981;43.292;-2.888;2022-11-20T13:37:30;12.35;;;5.20;;
28848;SDS011;15981;43.292;-2.888;2022-11-20T13:40:11;10.82;;;5.28;;
28848;SDS011;15981;43.292;-2.888;2022-11-20T13:42:44;12.10;;;5.63;;
28848;SDS011;15981;43.292;-2.888;2022-11-20T13:45:11;13.95;;;5.70;;
28848;SDS011;15981;43.292;-2.888;2022-11-20T13:47:49;11.93;;;5.05;;
28848;SDS011;15981;43.292;-2.888;2022-11-20T13:50:15;12.07;;;5.45;;
28848;SDS011;15981;43.292;-2.888;2022-11-20T13:55:36;11.02;;;5.28;;
28848;SDS011;15981;43.292;-2.888;2022-11-20T13:58:20;13.25;;;5.07;;
28848;SDS011;15981;43.292;-2.888;2022-11-20T14:03:34;9.75;;;4.55;;
28848;SDS011;15981;43.292;-2.888;2022-11-20T14:06:04;13.13;;;5.55;;
28848;SDS011;15981;43.292;-2.888;2022-11-20T14:08:48;9.60;;;4.10;;
28848;SDS011;15981;43.292;-2.888;2022-11-20T14:11:18;9.20;;;4.10;;
28848;SDS011;15981;43.292;-2.888;2022-11-20T14:13:52;11.15;;;4.50;;
28848;SDS011;15981;43.292;-2.888;2022-11-20T14:16:21;10.20;;;4.30;;
28848;SDS011;15981;43.292;-2.888;2022-11-20T14:18:47;10.90;;;4.53;;
28848;SDS011;15981;43.292;-2.888;2022-11-20T14:21:20;12.25;;;5.28;;
28848;SDS011;15981;43.292;-2.888;2022-11-20T14:23:46;9.70;;;4.55;;
28848;SDS011;15981;43.292;-2.888;2022-11-20T14:26:13;13.57;;;5.18;;
28848;SDS011;15981;43.292;-2.888;2022-11-20T14:28:40;12.73;;;5.20;;
28848;SDS011;15981;43.292;-2.888;2022-11-20T14:31:08;12.80;;;4.38;;
28848;SDS011;15981;43.292;-2.888;2022-11-20T14:33:42;9.75;;;4.47;;
28848;SDS011;15981;43.292;-2.888;2022-11-20T14:36:15;10.13;;;4.00;;
28848;SDS011;15981;43.292;-2.888;2022-11-20T14:38:41;9.52;;;4.30;;
28848;SDS011;15981;43.292;-2.888;2022-11-20T14:41:08;9.55;;;4.20;;
28848;SDS011;15981;43.292;-2.888;2022-11-20T14:43:34;8.50;;;4.00;;
28848;SDS011;15981;43.292;-2.888;2022-11-20T14:46:03;11.00;;;4.00;;
28848;SDS011;15981;43.292;-2.888;2022-11-20T14:48:46;8.90;;;3.60;;
28848;SDS011;15981;43.292;-2.888;2022-11-20T14:56:41;10.48;;;4.43;;
28848;SDS011;15981;43.292;-2.888;2022-11-20T14:59:07;8.45;;;4.03;;
28848;SDS011;15981;43.292;-2.888;2022-11-20T15:01:34;8.25;;;3.40;;
28848;SDS011;15981;43.292;-2.888;2022-11-20T15:04:09;10.57;;;4.38;;
28848;SDS011;15981;43.292;-2.888;2022-11-20T15:06:35;11.35;;;4.22;;
28848;SDS011;15981;43.292;-2.888;2022-11-20T15:09:02;10.55;;;4.10;;
28848;SDS011;15981;43.292;-2.888;2022-11-20T15:11:29;6.97;;;3.78;;
28848;SDS011;15981;43.292;-2.888;2022-11-20T15:13:56;6.57;;;4.05;;
28848;SDS011;15981;43.292;-2.888;2022-11-20T15:16:22;7.43;;;3.78;;
28848;SDS011;15981;43.292;-2.888;2022-11-20T15:18:48;11.50;;;4.05;;
28848;SDS011;15981;43.292;-2.888;2022-11-20T15:21:15;8.40;;;3.67;;
28848;SDS011;15981;43.292;-2.888;2022-11-20T15:23:41;9.55;;;4.00;;
28848;SDS011;15981;43.292;-2.888;2022-11-20T15:26:08;6.35;;;4.05;;
28848;SDS011;15981;43.292;-2.888;2022-11-20T15:28:35;9.88;;;3.78;;
28848;SDS011;15981;43.292;-2.888;2022-11-20T15:31:03;9.75;;;4.05;;
28848;SDS011;15981;43.292;-2.888;2022-11-20T15:33:29;9.88;;;3.78;;
28848;SDS011;15981;43.292;-2.888;2022-11-20T15:35:55;8.00;;;3.97;;
28848;SDS011;15981;43.292;-2.888;2022-11-20T15:38:21;10.15;;;3.90;;
28848;SDS011;15981;43.292;-2.888;2022-11-20T15:40:48;7.88;;;3.83;;
28848;SDS011;15981;43.292;-2.888;2022-11-20T15:43:14;8.18;;;3.63;;
28848;SDS011;15981;43.292;-2.888;2022-11-20T15:45:40;8.45;;;3.78;;
28848;SDS011;15981;43.292;-2.888;2022-11-20T15:53:19;6.90;;;4.15;;
28848;SDS011;15981;43.292;-2.888;2022-11-20T15:55:45;7.03;;;3.60;;
28848;SDS011;15981;43.292;-2.888;2022-11-20T15:58:11;8.68;;;3.97;;
28848;SDS011;15981;43.292;-2.888;2022-11-20T16:00:37;8.23;;;3.55;;
28848;SDS011;15981;43.292;-2.888;2022-11-20T16:03:02;8.18;;;3.92;;
28848;SDS011;15981;43.292;-2.888;2022-11-20T16:05:28;8.05;;;3.85;;
28848;SDS011;15981;43.292;-2.888;2022-11-20T16:07:55;4.97;;;3.10;;
28848;SDS011;15981;43.292;-2.888;2022-11-20T16:10:21;5.50;;;3.42;;
28848;SDS011;15981;43.292;-2.888;2022-11-20T16:12:47;7.95;;;3.47;;
28848;SDS011;15981;43.292;-2.888;2022-11-20T16:15:31;10.00;;;3.70;;